Time;durP1;ratioP1;P1;durP2;ratioP2;P2;SDS_P1;SDS_P2;PMS_P1;PMS_P2;Temp;Humidity;BMP_temperature;BMP_pressure;BME280_temperature;BME280_humidity;BME280_pressure;Samples;Min_cycle;Max_cycle;Signal;HPM_P1;HPM_P2
2021/09/14 00:00:19;;;;;;;7.22;4.97;;;;;;;;;;5072808;28;20039;-72
2021/09/14 00:02:45;;;;;;;7.72;4.95;;;;;;;;;;5072734;28;20103;-72
2021/09/14 00:05:12;;;;;;;12.60;5.30;;;;;;;;;;5072681;28;20122;-71
2021/09/14 00:07:38;;;;;;;11.30;6.05;;;;;;;;;;5072916;28;20029;-71
2021/09/14 00:10:05;;;;;;;17.27;6.55;;;;;;;;;;5072522;28;20060;-72
2021/09/14 00:12:31;;;;;;;9.80;6.28;;;;;;;;;;5072888;28;20028;-71
2021/09/14 00:14:57;;;;;;;14.93;7.30;;;;;;;;;;5072610;28;20044;-71
2021/09/14 00:17:23;;;;;;;11.30;6.78;;;;;;;;;;5072924;28;20123;-71
2021/09/14 00:19:49;;;;;;;14.00;6.85;;;;;;;;;;5072467;28;20473;-72
2021/09/14 00:22:15;;;;;;;16.30;6.70;;;;;;;;;;5072535;28;20622;-72
2021/09/14 00:24:41;;;;;;;9.23;6.57;;;;;;;;;;5072598;28;20066;-72
2021/09/14 00:27:07;;;;;;;14.80;7.13;;;;;;;;;;5072609;28;20493;-71
2021/09/14 00:29:33;;;;;;;15.75;6.90;;;;;;;;;;5072613;28;20512;-72
2021/09/14 00:31:59;;;;;;;9.57;6.93;;;;;;;;;;5072557;28;20401;-72
2021/09/14 00:34:25;;;;;;;12.40;6.68;;;;;;;;;;5072664;28;20029;-72
2021/09/14 00:36:51;;;;;;;11.40;6.05;;;;;;;;;;5072509;28;20054;-72
2021/09/14 00:39:17;;;;;;;11.70;5.63;;;;;;;;;;5072484;28;20048;-71
2021/09/14 00:41:43;;;;;;;13.30;5.43;;;;;;;;;;5072601;28;20039;-72
2021/09/14 00:44:09;;;;;;;11.07;5.78;;;;;;;;;;5075343;28;20119;-71
2021/09/14 00:46:35;;;;;;;10.80;5.00;;;;;;;;;;5076410;28;20040;-71
2021/09/14 00:49:02;;;;;;;11.30;4.93;;;;;;;;;;5076496;28;20040;-72
2021/09/14 00:51:28;;;;;;;12.25;5.75;;;;;;;;;;5076019;28;20108;-71
2021/09/14 00:53:54;;;;;;;8.68;4.63;;;;;;;;;;5075993;28;20033;-72
2021/09/14 00:56:20;;;;;;;10.45;5.25;;;;;;;;;;5076304;28;20491;-72
2021/09/14 00:58:46;;;;;;;7.35;4.68;;;;;;;;;;5073587;28;20070;-72
2021/09/14 01:01:12;;;;;;;14.75;4.68;;;;;;;;;;5073368;28;20185;-71
2021/09/14 01:03:38;;;;;;;6.90;4.60;;;;;;;;;;5072996;28;20104;-72
2021/09/14 01:06:06;;;;;;;13.82;5.25;;;;;;;;;;5075294;28;20055;-71
2021/09/14 01:08:33;;;;;;;9.52;4.80;;;;;;;;;;5075936;28;20028;-72
2021/09/14 01:11:01;;;;;;;7.78;5.07;;;;;;;;;;5075635;28;20108;-72
2021/09/14 01:13:27;;;;;;;8.75;5.22;;;;;;;;;;5075365;28;20028;-72
2021/09/14 01:15:53;;;;;;;7.85;4.80;;;;;;;;;;5075389;28;20029;-71
2021/09/14 01:18:19;;;;;;;9.85;4.90;;;;;;;;;;5075784;28;20040;-71
2021/09/14 01:20:45;;;;;;;7.97;4.85;;;;;;;;;;5075338;28;20139;-71
2021/09/14 01:23:11;;;;;;;7.75;4.90;;;;;;;;;;5075790;28;20040;-72
2021/09/14 01:25:37;;;;;;;10.70;5.68;;;;;;;;;;5075488;28;20579;-71
2021/09/14 01:28:04;;;;;;;15.73;5.80;;;;;;;;;;5075254;28;20032;-72
2021/09/14 01:30:31;;;;;;;7.07;5.55;;;;;;;;;;5075177;28;20028;-72
2021/09/14 01:32:57;;;;;;;11.85;5.28;;;;;;;;;;5075114;28;20055;-72
2021/09/14 01:35:27;;;;;;;7.38;5.47;;;;;;;;;;5074813;28;20090;-72
2021/09/14 01:37:53;;;;;;;9.88;5.32;;;;;;;;;;5075264;28;20115;-71
2021/09/14 01:40:20;;;;;;;7.80;5.47;;;;;;;;;;5075083;28;20047;-72
2021/09/14 01:42:46;;;;;;;16.20;5.55;;;;;;;;;;5074508;28;20090;-72
2021/09/14 01:45:13;;;;;;;13.13;5.68;;;;;;;;;;5075252;28;20091;-71
2021/09/14 01:47:39;;;;;;;10.93;5.72;;;;;;;;;;5074992;28;20039;-71
2021/09/14 01:50:06;;;;;;;11.48;5.28;;;;;;;;;;5074702;28;20157;-72
2021/09/14 01:52:33;;;;;;;11.02;4.97;;;;;;;;;;5075185;28;20036;-72
2021/09/14 01:55:04;;;;;;;9.02;5.38;;;;;;;;;;5073775;28;20029;-72
2021/09/14 01:57:38;;;;;;;6.25;5.20;;;;;;;;;;5074327;28;20061;-72
2021/09/14 02:00:07;;;;;;;9.00;5.80;;;;;;;;;;5075005;28;20052;-71
2021/09/14 02:06:14;;;;;;;8.65;5.53;;;;;;;;;;5074879;28;20040;-71
2021/09/14 02:08:13;;;;;;;10.73;5.45;;;;;;;;;;5068907;28;20032;-72
2021/09/14 02:44:58;;;;;;;8.50;5.20;;;;;;;;;;5031823;28;20034;-71
2021/09/14 02:56:18;;;;;;;8.65;5.80;;;;;;;;;;5074011;28;20031;-71
2021/09/14 03:00:34;;;;;;;10.77;5.35;;;;;;;;;;5073907;28;20052;-72
2021/09/14 03:03:00;;;;;;;7.45;4.95;;;;;;;;;;5073680;28;20048;-71
2021/09/14 03:05:28;;;;;;;11.55;5.25;;;;;;;;;;5073692;28;20036;-72
2021/09/14 03:07:54;;;;;;;13.48;5.40;;;;;;;;;;5073337;28;20033;-71
2021/09/14 03:10:20;;;;;;;8.43;5.57;;;;;;;;;;5073707;28;20028;-72
2021/09/14 03:12:46;;;;;;;12.35;5.63;;;;;;;;;;5073521;28;20444;-72
2021/09/14 03:15:12;;;;;;;14.18;5.35;;;;;;;;;;5073388;28;20024;-71
2021/09/14 03:17:38;;;;;;;7.88;5.50;;;;;;;;;;5073579;28;20071;-71
2021/09/14 03:20:05;;;;;;;11.13;6.05;;;;;;;;;;5073333;28;20126;-71
2021/09/14 03:22:31;;;;;;;9.45;5.32;;;;;;;;;;5073419;28;20538;-71
2021/09/14 03:24:57;;;;;;;12.73;5.95;;;;;;;;;;5073362;28;20424;-72
2021/09/14 03:27:23;;;;;;;9.57;5.45;;;;;;;;;;5072890;28;20024;-72
2021/09/14 03:29:49;;;;;;;6.50;5.38;;;;;;;;;;5071881;28;20433;-72
2021/09/14 03:32:15;;;;;;;8.18;5.65;;;;;;;;;;5073171;28;20543;-72
2021/09/14 03:34:41;;;;;;;8.10;5.55;;;;;;;;;;5073153;28;20040;-72
2021/09/14 03:37:07;;;;;;;11.48;5.85;;;;;;;;;;5072976;28;20031;-72
2021/09/14 03:39:33;;;;;;;12.88;5.20;;;;;;;;;;5073056;28;20041;-71
2021/09/14 03:41:59;;;;;;;17.58;5.88;;;;;;;;;;5073314;28;20389;-71
2021/09/14 03:44:25;;;;;;;15.05;6.07;;;;;;;;;;5073420;28;20036;-71
2021/09/14 03:46:51;;;;;;;10.43;5.55;;;;;;;;;;5072968;28;20111;-71
2021/09/14 03:49:17;;;;;;;9.98;5.80;;;;;;;;;;5072889;28;20032;-72
2021/09/14 03:51:43;;;;;;;21.63;6.45;;;;;;;;;;5073272;28;20043;-71
2021/09/14 03:54:09;;;;;;;37.50;7.70;;;;;;;;;;5072938;28;20032;-71
2021/09/14 03:56:35;;;;;;;50.95;7.30;;;;;;;;;;5072695;28;20079;-71
2021/09/14 03:59:01;;;;;;;37.03;6.80;;;;;;;;;;5072533;28;20432;-72
2021/09/14 04:01:27;;;;;;;19.10;5.93;;;;;;;;;;5072842;28;20045;-71
2021/09/14 04:04:00;;;;;;;27.35;6.03;;;;;;;;;;5072907;28;20222;-71
2021/09/14 04:09:28;;;;;;;13.48;5.13;;;;;;;;;;5030687;28;20030;-72
2021/09/14 04:11:54;;;;;;;9.10;5.82;;;;;;;;;;5064131;28;20135;-71
2021/09/14 04:14:20;;;;;;;6.72;5.13;;;;;;;;;;5072998;28;20063;-71
2021/09/14 04:16:46;;;;;;;10.57;5.90;;;;;;;;;;5072671;28;20037;-72
2021/09/14 04:19:12;;;;;;;7.40;5.18;;;;;;;;;;5074973;28;20045;-71
2021/09/14 04:21:38;;;;;;;11.50;5.00;;;;;;;;;;5076717;28;20032;-72
2021/09/14 04:24:04;;;;;;;9.73;5.32;;;;;;;;;;5076694;28;20036;-72
2021/09/14 04:26:30;;;;;;;9.60;5.70;;;;;;;;;;5076784;28;20061;-71
2021/09/14 04:28:56;;;;;;;11.85;5.70;;;;;;;;;;5076706;28;20491;-71
2021/09/14 04:31:22;;;;;;;25.08;6.28;;;;;;;;;;5076564;28;20090;-71
2021/09/14 04:33:48;;;;;;;33.28;6.65;;;;;;;;;;5076600;28;20116;-71
2021/09/14 04:36:14;;;;;;;27.00;5.88;;;;;;;;;;5076589;28;20523;-71
2021/09/14 04:38:42;;;;;;;17.55;5.60;;;;;;;;;;5076463;28;20534;-71
2021/09/14 04:41:08;;;;;;;13.02;5.65;;;;;;;;;;5076626;28;20529;-71
2021/09/14 04:43:34;;;;;;;16.88;5.38;;;;;;;;;;5076466;28;20504;-71
2021/09/14 04:46:00;;;;;;;12.18;5.97;;;;;;;;;;5076329;28;20090;-71
2021/09/14 04:48:26;;;;;;;14.35;5.60;;;;;;;;;;5076112;28;20028;-71
2021/09/14 04:50:52;;;;;;;18.80;5.22;;;;;;;;;;5076247;28;20085;-72
2021/09/14 04:53:18;;;;;;;13.57;5.05;;;;;;;;;;5076184;28;20710;-71
2021/09/14 04:55:44;;;;;;;22.13;5.78;;;;;;;;;;5076199;28;20409;-71
2021/09/14 04:58:10;;;;;;;22.25;6.28;;;;;;;;;;5075793;28;20041;-72
2021/09/14 05:00:36;;;;;;;29.02;6.50;;;;;;;;;;5076010;28;20033;-71
2021/09/14 05:03:03;;;;;;;21.58;6.78;;;;;;;;;;5075971;28;20044;-72
2021/09/14 05:05:29;;;;;;;10.30;5.97;;;;;;;;;;5076075;28;20032;-71
2021/09/14 05:07:55;;;;;;;10.25;6.05;;;;;;;;;;5076267;28;20051;-71
2021/09/14 05:10:21;;;;;;;6.97;5.65;;;;;;;;;;5075645;28;20090;-71
2021/09/14 05:12:47;;;;;;;20.67;5.55;;;;;;;;;;5075908;28;20054;-71
2021/09/14 05:15:13;;;;;;;14.18;6.05;;;;;;;;;;5075646;28;20037;-72
2021/09/14 05:17:39;;;;;;;15.55;5.35;;;;;;;;;;5075627;28;20033;-71
2021/09/14 05:20:07;;;;;;;13.32;5.72;;;;;;;;;;5075966;28;20451;-71
2021/09/14 05:22:34;;;;;;;9.57;5.68;;;;;;;;;;5076084;28;20033;-71
2021/09/14 05:25:00;;;;;;;12.68;5.63;;;;;;;;;;5075462;28;20469;-71
2021/09/14 05:27:26;;;;;;;9.70;5.65;;;;;;;;;;5075751;28;20388;-72
2021/09/14 05:29:53;;;;;;;15.50;5.50;;;;;;;;;;5075352;28;20036;-72
2021/09/14 05:32:19;;;;;;;9.98;5.38;;;;;;;;;;5075457;28;20036;-71
2021/09/14 05:34:46;;;;;;;12.98;5.53;;;;;;;;;;5075390;28;20029;-71
2021/09/14 05:37:12;;;;;;;9.45;5.95;;;;;;;;;;5075143;28;20036;-71
2021/09/14 05:39:38;;;;;;;16.85;6.63;;;;;;;;;;5075078;28;20048;-72
2021/09/14 05:42:06;;;;;;;15.68;5.70;;;;;;;;;;5075417;28;20499;-72
2021/09/14 05:44:34;;;;;;;21.20;7.35;;;;;;;;;;5074978;28;20040;-72
2021/09/14 05:47:00;;;;;;;12.15;5.88;;;;;;;;;;5073159;28;20028;-71
2021/09/14 05:49:26;;;;;;;16.67;5.88;;;;;;;;;;5074378;28;20033;-71
2021/09/14 05:51:52;;;;;;;18.42;6.38;;;;;;;;;;5074259;28;20469;-72
2021/09/14 05:54:18;;;;;;;24.50;7.82;;;;;;;;;;5074065;28;20029;-72
2021/09/14 05:56:44;;;;;;;42.92;7.35;;;;;;;;;;5073839;28;20060;-72
2021/09/14 05:59:10;;;;;;;28.90;9.32;;;;;;;;;;5073528;28;20080;-72
2021/09/14 06:01:36;;;;;;;39.72;9.70;;;;;;;;;;5073615;28;20464;-71
2021/09/14 06:04:02;;;;;;;38.80;9.10;;;;;;;;;;5074770;28;20032;-72
2021/09/14 06:06:29;;;;;;;52.03;8.45;;;;;;;;;;5074761;28;20033;-71
2021/09/14 06:08:55;;;;;;;35.22;8.35;;;;;;;;;;5074958;28;20032;-71
2021/09/14 06:11:21;;;;;;;32.45;7.63;;;;;;;;;;5073318;28;20041;-72
2021/09/14 06:13:47;;;;;;;21.70;6.85;;;;;;;;;;5072267;28;20032;-72
2021/09/14 06:16:13;;;;;;;15.27;6.13;;;;;;;;;;5071659;28;20036;-73
2021/09/14 06:18:39;;;;;;;17.90;5.78;;;;;;;;;;5073445;28;20032;-72
2021/09/14 06:21:06;;;;;;;14.07;5.47;;;;;;;;;;5074648;28;20040;-72
2021/09/14 06:23:32;;;;;;;20.38;6.43;;;;;;;;;;5074653;28;20032;-72
2021/09/14 06:25:58;;;;;;;25.45;7.45;;;;;;;;;;5074194;28;20028;-73
2021/09/14 06:28:24;;;;;;;28.30;7.63;;;;;;;;;;5072877;28;20094;-73
2021/09/14 06:30:50;;;;;;;38.33;8.23;;;;;;;;;;5071546;28;20028;-73
2021/09/14 06:33:16;;;;;;;37.78;9.02;;;;;;;;;;5072112;28;20036;-73
2021/09/14 06:35:42;;;;;;;30.70;7.43;;;;;;;;;;5074336;28;20099;-74
2021/09/14 06:38:08;;;;;;;28.88;7.75;;;;;;;;;;5074074;28;20039;-73
2021/09/14 06:40:34;;;;;;;30.20;7.53;;;;;;;;;;5073672;28;20107;-74
2021/09/14 06:43:00;;;;;;;10.77;5.80;;;;;;;;;;5073672;28;20063;-73
2021/09/14 06:45:26;;;;;;;12.43;5.55;;;;;;;;;;5072535;28;20044;-73
2021/09/14 06:47:52;;;;;;;16.45;5.57;;;;;;;;;;5073522;28;20041;-72
2021/09/14 06:50:22;;;;;;;14.13;5.90;;;;;;;;;;5073788;28;20072;-73
2021/09/14 06:52:48;;;;;;;11.02;5.32;;;;;;;;;;5082469;28;20036;-73
2021/09/14 06:55:15;;;;;;;10.73;5.18;;;;;;;;;;5093757;28;20035;-72
2021/09/14 06:57:41;;;;;;;11.65;5.50;;;;;;;;;;5093669;28;20092;-73
2021/09/14 07:00:08;;;;;;;10.48;5.25;;;;;;;;;;5093924;28;20509;-73
2021/09/14 07:02:34;;;;;;;14.38;5.95;;;;;;;;;;5079048;28;20037;-72
2021/09/14 07:05:00;;;;;;;16.77;6.85;;;;;;;;;;5073683;28;20035;-73
2021/09/14 07:07:26;;;;;;;11.32;5.88;;;;;;;;;;5073431;28;20045;-72
2021/09/14 07:09:52;;;;;;;17.63;6.43;;;;;;;;;;5078500;28;20056;-72
2021/09/14 07:12:21;;;;;;;19.17;5.75;;;;;;;;;;5093368;28;20082;-73
2021/09/14 07:14:47;;;;;;;12.23;5.55;;;;;;;;;;5093382;28;20024;-73
2021/09/14 07:17:13;;;;;;;16.33;5.55;;;;;;;;;;5093799;28;20032;-73
2021/09/14 07:19:39;;;;;;;8.38;5.57;;;;;;;;;;5093879;28;20040;-73
2021/09/14 07:22:05;;;;;;;13.32;5.50;;;;;;;;;;5093803;28;20393;-74
2021/09/14 07:24:31;;;;;;;13.75;5.20;;;;;;;;;;5093594;28;20036;-73
2021/09/14 07:26:57;;;;;;;10.05;5.22;;;;;;;;;;5093633;28;20107;-73
2021/09/14 07:29:23;;;;;;;11.25;5.78;;;;;;;;;;5093520;28;20048;-73
2021/09/14 07:31:50;;;;;;;16.73;6.10;;;;;;;;;;5093567;28;20031;-73
2021/09/14 07:34:16;;;;;;;11.57;5.60;;;;;;;;;;5093278;28;20047;-74
2021/09/14 07:36:42;;;;;;;11.82;5.82;;;;;;;;;;5093535;28;20028;-74
2021/09/14 07:39:08;;;;;;;15.07;5.85;;;;;;;;;;5093390;28;20048;-74
2021/09/14 07:41:35;;;;;;;15.85;5.97;;;;;;;;;;5092926;28;20021;-74
2021/09/14 07:44:01;;;;;;;11.93;5.75;;;;;;;;;;5091346;28;20129;-74
2021/09/14 07:46:27;;;;;;;12.27;5.32;;;;;;;;;;5091297;28;20496;-74
2021/09/14 07:48:53;;;;;;;14.05;5.30;;;;;;;;;;5090346;28;20068;-74
2021/09/14 07:51:19;;;;;;;13.13;5.45;;;;;;;;;;5090532;28;20040;-74
2021/09/14 07:53:45;;;;;;;8.40;4.95;;;;;;;;;;5092186;28;20036;-74
2021/09/14 07:56:11;;;;;;;11.00;4.95;;;;;;;;;;5093240;28;20082;-74
2021/09/14 07:58:37;;;;;;;12.68;5.22;;;;;;;;;;5093322;28;20048;-74
2021/09/14 08:01:03;;;;;;;19.20;5.57;;;;;;;;;;5093238;28;20035;-74
2021/09/14 08:03:29;;;;;;;15.75;5.53;;;;;;;;;;5092486;28;20043;-74
2021/09/14 08:05:55;;;;;;;10.80;5.20;;;;;;;;;;5092942;28;20468;-74
2021/09/14 08:08:21;;;;;;;13.73;5.70;;;;;;;;;;5093084;28;20039;-74
2021/09/14 08:10:47;;;;;;;9.85;5.30;;;;;;;;;;5093253;28;20037;-74
2021/09/14 08:13:13;;;;;;;9.93;5.15;;;;;;;;;;5093327;28;20032;-74
2021/09/14 08:15:39;;;;;;;16.08;5.20;;;;;;;;;;5093141;28;20468;-74
2021/09/14 08:18:05;;;;;;;9.73;5.03;;;;;;;;;;5093134;28;20082;-74
2021/09/14 08:20:31;;;;;;;14.43;5.63;;;;;;;;;;5092948;28;20423;-74
2021/09/14 08:22:58;;;;;;;12.73;6.18;;;;;;;;;;5092975;28;20040;-73
2021/09/14 08:25:24;;;;;;;16.05;5.72;;;;;;;;;;5093033;28;20062;-74
2021/09/14 08:27:50;;;;;;;12.82;5.20;;;;;;;;;;5092827;28;20032;-74
2021/09/14 08:30:16;;;;;;;13.48;5.07;;;;;;;;;;5093161;28;20181;-74
2021/09/14 08:32:42;;;;;;;9.63;5.72;;;;;;;;;;5092992;28;20566;-74
2021/09/14 08:35:09;;;;;;;12.50;5.47;;;;;;;;;;5092836;28;20028;-73
2021/09/14 08:37:35;;;;;;;14.45;5.47;;;;;;;;;;5092761;28;20035;-74
2021/09/14 08:40:01;;;;;;;11.35;5.90;;;;;;;;;;5093021;28;20040;-74
2021/09/14 08:42:28;;;;;;;11.60;5.15;;;;;;;;;;5092995;28;20035;-73
2021/09/14 08:44:54;;;;;;;25.58;6.75;;;;;;;;;;5092918;28;20400;-73
2021/09/14 08:47:22;;;;;;;13.07;5.63;;;;;;;;;;5092916;28;20036;-74
2021/09/14 08:49:48;;;;;;;9.45;5.20;;;;;;;;;;5092579;28;20047;-73
2021/09/14 08:52:15;;;;;;;10.45;5.30;;;;;;;;;;5093082;28;20032;-74
2021/09/14 08:54:41;;;;;;;11.43;5.60;;;;;;;;;;5092968;28;20051;-74
2021/09/14 08:57:07;;;;;;;9.63;5.13;;;;;;;;;;5092523;28;20484;-73
2021/09/14 08:59:34;;;;;;;11.65;5.53;;;;;;;;;;5092612;28;20450;-74
2021/09/14 09:02:01;;;;;;;11.27;5.32;;;;;;;;;;5092844;28;20043;-73
2021/09/14 09:04:27;;;;;;;18.42;6.38;;;;;;;;;;5093586;28;20035;-74
2021/09/14 09:06:53;;;;;;;17.02;5.50;;;;;;;;;;5096201;28;20032;-73
2021/09/14 09:09:20;;;;;;;21.15;6.10;;;;;;;;;;5096230;28;20177;-73
2021/09/14 09:12:10;;;;;;;8.68;4.80;;;;;;;;;;5096297;28;20031;-74
2021/09/14 09:14:39;;;;;;;11.40;4.97;;;;;;;;;;5096313;28;20036;-74
2021/09/14 09:17:13;;;;;;;10.82;4.97;;;;;;;;;;5095993;28;20537;-73
2021/09/14 09:19:44;;;;;;;10.77;4.95;;;;;;;;;;5093147;28;20441;-74
2021/09/14 09:22:12;;;;;;;12.68;6.18;;;;;;;;;;5093238;28;20089;-74
2021/09/14 09:24:45;;;;;;;11.90;5.00;;;;;;;;;;5092695;28;20032;-73
2021/09/14 09:27:13;;;;;;;7.22;4.50;;;;;;;;;;5094822;28;20498;-74
2021/09/14 09:29:39;;;;;;;5.95;4.43;;;;;;;;;;5095350;28;20032;-73
2021/09/14 09:32:05;;;;;;;11.68;5.10;;;;;;;;;;5095760;28;20040;-73
2021/09/14 09:34:31;;;;;;;13.88;4.47;;;;;;;;;;5095579;28;20384;-73
2021/09/14 09:37:03;;;;;;;14.43;4.38;;;;;;;;;;5095698;28;20388;-74
2021/09/14 09:39:44;;;;;;;13.63;4.35;;;;;;;;;;5095462;28;20076;-73
2021/09/14 09:42:10;;;;;;;10.13;4.03;;;;;;;;;;5095174;28;20043;-74
2021/09/14 09:44:37;;;;;;;11.77;4.65;;;;;;;;;;5094945;28;20058;-74
2021/09/14 09:47:03;;;;;;;11.02;4.55;;;;;;;;;;5092691;28;20071;-72
2021/09/14 09:49:29;;;;;;;9.02;4.20;;;;;;;;;;5092537;28;20081;-73
2021/09/14 09:51:57;;;;;;;13.60;5.57;;;;;;;;;;5093355;28;20107;-72
2021/09/14 09:54:23;;;;;;;12.75;4.47;;;;;;;;;;5095106;28;20028;-72
2021/09/14 09:56:49;;;;;;;13.00;4.30;;;;;;;;;;5094589;28;20378;-72
2021/09/14 09:59:16;;;;;;;8.77;4.35;;;;;;;;;;5092925;28;20066;-73
2021/09/14 10:01:43;;;;;;;16.15;4.70;;;;;;;;;;5091263;28;20028;-73
2021/09/14 10:04:15;;;;;;;14.18;4.40;;;;;;;;;;5092342;28;20407;-73
2021/09/14 10:06:49;;;;;;;7.57;5.32;;;;;;;;;;5093623;28;20044;-73
2021/09/14 10:09:15;;;;;;;8.60;4.18;;;;;;;;;;5093975;28;20097;-73
2021/09/14 10:11:41;;;;;;;10.88;4.30;;;;;;;;;;5094939;28;20055;-73
2021/09/14 10:14:16;;;;;;;12.90;4.30;;;;;;;;;;5093936;28;20570;-73
2021/09/14 10:16:46;;;;;;;9.20;4.10;;;;;;;;;;5093123;28;20039;-73
2021/09/14 10:19:16;;;;;;;13.27;4.20;;;;;;;;;;5094503;28;20142;-73
2021/09/14 10:21:47;;;;;;;10.93;4.43;;;;;;;;;;5094436;28;20153;-73
2021/09/14 10:24:23;;;;;;;12.13;4.27;;;;;;;;;;5092863;28;20039;-73
2021/09/14 10:26:50;;;;;;;9.32;4.63;;;;;;;;;;5092428;28;20273;-74
2021/09/14 10:29:17;;;;;;;8.65;4.55;;;;;;;;;;5094181;28;20032;-73
2021/09/14 10:31:43;;;;;;;13.45;4.25;;;;;;;;;;5093694;28;20524;-73
2021/09/14 10:34:11;;;;;;;11.23;4.25;;;;;;;;;;5093984;28;20114;-74
2021/09/14 10:36:38;;;;;;;10.73;4.07;;;;;;;;;;5094365;28;20032;-73
2021/09/14 10:39:07;;;;;;;17.63;4.75;;;;;;;;;;5094388;28;20044;-73
2021/09/14 10:41:40;;;;;;;7.53;4.07;;;;;;;;;;5094431;28;20032;-73
2021/09/14 10:44:10;;;;;;;10.55;4.45;;;;;;;;;;5094597;28;20032;-73
2021/09/14 10:46:37;;;;;;;13.88;4.50;;;;;;;;;;5094406;28;20043;-73
2021/09/14 10:49:16;;;;;;;15.75;4.18;;;;;;;;;;5094266;28;20058;-74
2021/09/14 10:51:53;;;;;;;11.05;4.05;;;;;;;;;;5095012;28;20042;-73
2021/09/14 10:54:20;;;;;;;9.15;4.28;;;;;;;;;;5094506;28;20495;-73
2021/09/14 10:56:48;;;;;;;8.43;3.67;;;;;;;;;;5094376;28;20109;-73
2021/09/14 10:59:18;;;;;;;10.40;4.00;;;;;;;;;;5094049;28;20044;-73
2021/09/14 11:01:46;;;;;;;8.63;4.35;;;;;;;;;;5094048;28;20450;-73
2021/09/14 11:04:13;;;;;;;9.02;3.88;;;;;;;;;;5094429;28;20024;-73
2021/09/14 11:06:39;;;;;;;7.88;4.18;;;;;;;;;;5094584;28;20036;-73
2021/09/14 11:09:06;;;;;;;26.02;5.15;;;;;;;;;;5094137;28;20044;-73
2021/09/14 11:11:32;;;;;;;21.95;4.70;;;;;;;;;;5093965;28;20032;-73
2021/09/14 11:13:59;;;;;;;10.18;4.30;;;;;;;;;;5094088;28;20032;-74
2021/09/14 11:16:25;;;;;;;8.25;4.10;;;;;;;;;;5094143;28;20054;-73
2021/09/14 11:18:51;;;;;;;12.88;4.40;;;;;;;;;;5094156;28;20535;-73
2021/09/14 11:21:18;;;;;;;15.07;3.65;;;;;;;;;;5093874;28;20488;-73
2021/09/14 11:23:46;;;;;;;12.07;4.40;;;;;;;;;;5094144;28;20032;-73
2021/09/14 11:26:13;;;;;;;16.17;4.38;;;;;;;;;;5093617;28;20086;-74
2021/09/14 11:28:41;;;;;;;9.82;4.18;;;;;;;;;;5093917;28;20074;-74
2021/09/14 11:31:09;;;;;;;12.45;4.55;;;;;;;;;;5093611;28;20058;-73
2021/09/14 11:33:38;;;;;;;8.98;3.47;;;;;;;;;;5093529;28;20119;-73
2021/09/14 11:36:07;;;;;;;9.80;4.18;;;;;;;;;;5094139;28;20115;-73
2021/09/14 11:38:33;;;;;;;10.07;3.88;;;;;;;;;;5093608;28;20071;-75
2021/09/14 11:41:00;;;;;;;7.38;3.80;;;;;;;;;;5093820;28;20067;-73
2021/09/14 11:43:28;;;;;;;14.50;4.07;;;;;;;;;;5093492;28;20043;-73
2021/09/14 11:45:54;;;;;;;10.88;3.92;;;;;;;;;;5093359;28;20111;-73
2021/09/14 11:48:20;;;;;;;10.98;4.15;;;;;;;;;;5093346;28;20469;-74
2021/09/14 11:50:47;;;;;;;7.90;3.90;;;;;;;;;;5093501;28;20043;-73
2021/09/14 11:53:14;;;;;;;20.55;4.40;;;;;;;;;;5093328;28;20028;-73
2021/09/14 11:55:41;;;;;;;11.07;3.55;;;;;;;;;;5093671;28;20096;-73
2021/09/14 11:58:07;;;;;;;9.25;3.40;;;;;;;;;;5093078;28;20052;-73
2021/09/14 12:00:35;;;;;;;10.68;4.10;;;;;;;;;;5093100;28;20036;-73
2021/09/14 12:03:01;;;;;;;16.15;4.30;;;;;;;;;;5093443;28;20082;-73
2021/09/14 12:05:27;;;;;;;12.20;3.92;;;;;;;;;;5093224;28;20028;-73
2021/09/14 12:07:57;;;;;;;13.18;4.30;;;;;;;;;;5093297;28;20032;-73
2021/09/14 12:10:23;;;;;;;12.93;4.18;;;;;;;;;;5092934;28;20558;-73
2021/09/14 12:12:50;;;;;;;6.70;4.07;;;;;;;;;;5093235;28;20059;-73
2021/09/14 12:15:18;;;;;;;10.93;3.85;;;;;;;;;;5093073;28;20036;-73
2021/09/14 12:17:44;;;;;;;10.90;4.35;;;;;;;;;;5093205;28;20086;-73
2021/09/14 12:20:10;;;;;;;8.27;3.83;;;;;;;;;;5092983;28;20106;-73
2021/09/14 12:22:36;;;;;;;9.68;3.78;;;;;;;;;;5092624;28;20040;-73
2021/09/14 12:25:02;;;;;;;7.47;3.55;;;;;;;;;;5093076;28;20036;-72
2021/09/14 12:27:29;;;;;;;19.73;4.25;;;;;;;;;;5092931;28;20039;-73
2021/09/14 12:29:55;;;;;;;11.48;4.30;;;;;;;;;;5093144;28;20040;-73
2021/09/14 12:32:21;;;;;;;11.60;3.88;;;;;;;;;;5093233;28;20537;-73
2021/09/14 12:34:47;;;;;;;11.70;3.97;;;;;;;;;;5092880;28;20036;-73
2021/09/14 12:37:13;;;;;;;12.43;3.75;;;;;;;;;;5092881;28;20389;-73
2021/09/14 12:39:39;;;;;;;8.80;3.63;;;;;;;;;;5094513;28;20040;-73
2021/09/14 12:42:05;;;;;;;11.43;3.75;;;;;;;;;;5097055;28;20032;-73
2021/09/14 12:44:32;;;;;;;13.68;4.47;;;;;;;;;;5097125;28;20047;-72
2021/09/14 12:46:58;;;;;;;9.23;3.58;;;;;;;;;;5096993;28;20484;-73
2021/09/14 12:49:25;;;;;;;9.32;3.70;;;;;;;;;;5096601;28;20384;-73
2021/09/14 12:51:53;;;;;;;12.75;3.80;;;;;;;;;;5097097;28;20111;-73
2021/09/14 12:54:19;;;;;;;12.55;3.80;;;;;;;;;;5096808;28;20047;-72
2021/09/14 12:56:45;;;;;;;5.90;3.50;;;;;;;;;;5096816;28;20036;-72
2021/09/14 12:59:11;;;;;;;6.07;3.45;;;;;;;;;;5096497;28;20044;-73
2021/09/14 13:01:37;;;;;;;10.32;3.75;;;;;;;;;;5096785;28;20032;-73
2021/09/14 13:04:03;;;;;;;8.25;3.55;;;;;;;;;;5096932;28;20494;-73
2021/09/14 13:06:29;;;;;;;8.00;3.50;;;;;;;;;;5096728;28;20032;-74
2021/09/14 13:08:55;;;;;;;5.30;3.60;;;;;;;;;;5096698;28;20042;-73
2021/09/14 13:11:21;;;;;;;11.90;3.50;;;;;;;;;;5096219;28;20032;-73
2021/09/14 13:16:32;;;;;;;6.05;3.30;;;;;;;;;;5096284;28;20403;-73
2021/09/14 13:18:58;;;;;;;7.88;3.45;;;;;;;;;;5096242;28;20040;-73
2021/09/14 13:21:25;;;;;;;9.52;3.30;;;;;;;;;;5096532;28;20035;-73
2021/09/14 13:23:51;;;;;;;10.05;3.25;;;;;;;;;;5096431;28;20036;-73
2021/09/14 13:26:18;;;;;;;9.10;3.03;;;;;;;;;;5096351;28;20028;-74
2021/09/14 13:28:44;;;;;;;9.25;3.38;;;;;;;;;;5096025;28;20024;-73
2021/09/14 13:31:10;;;;;;;8.77;3.47;;;;;;;;;;5095615;28;20111;-73
2021/09/14 13:33:37;;;;;;;11.18;3.35;;;;;;;;;;5096016;28;20028;-72
2021/09/14 13:36:03;;;;;;;13.70;3.60;;;;;;;;;;5095911;28;20044;-73
2021/09/14 13:38:30;;;;;;;13.55;3.50;;;;;;;;;;5095922;28;20439;-72
2021/09/14 13:41:03;;;;;;;6.28;3.70;;;;;;;;;;5095561;28;20445;-73
2021/09/14 13:43:35;;;;;;;9.80;3.40;;;;;;;;;;5095687;28;20040;-73
2021/09/14 13:46:11;;;;;;;6.00;3.80;;;;;;;;;;5095632;28;20032;-73
2021/09/14 13:48:39;;;;;;;10.60;3.58;;;;;;;;;;5095768;28;20089;-73
2021/09/14 13:51:05;;;;;;;7.63;3.88;;;;;;;;;;5094323;28;20032;-73
2021/09/14 13:53:31;;;;;;;10.57;3.70;;;;;;;;;;5095692;28;20031;-73
2021/09/14 13:55:57;;;;;;;11.98;3.03;;;;;;;;;;5095466;28;20055;-73
2021/09/14 13:58:23;;;;;;;5.22;2.92;;;;;;;;;;5095307;28;20051;-73
2021/09/14 14:00:49;;;;;;;9.30;3.40;;;;;;;;;;5095499;28;20040;-72
2021/09/14 14:03:15;;;;;;;8.57;3.20;;;;;;;;;;5095383;28;20420;-73
2021/09/14 14:05:41;;;;;;;5.90;3.20;;;;;;;;;;5095352;28;20108;-72
2021/09/14 14:08:07;;;;;;;10.00;3.42;;;;;;;;;;5095560;28;20437;-73
2021/09/14 14:10:33;;;;;;;5.65;3.50;;;;;;;;;;5095400;28;20119;-73
2021/09/14 14:12:59;;;;;;;10.20;3.58;;;;;;;;;;5095098;28;20111;-73
2021/09/14 14:15:25;;;;;;;10.55;3.55;;;;;;;;;;5095199;28;20071;-73
2021/09/14 14:17:51;;;;;;;8.98;3.50;;;;;;;;;;5095124;28;20051;-73
2021/09/14 14:20:17;;;;;;;11.65;3.53;;;;;;;;;;5095090;28;20036;-73
2021/09/14 14:22:43;;;;;;;9.85;3.55;;;;;;;;;;5095124;28;20157;-73
2021/09/14 14:25:10;;;;;;;5.07;3.00;;;;;;;;;;5094848;28;20486;-73
2021/09/14 14:27:36;;;;;;;6.63;3.50;;;;;;;;;;5094921;28;20063;-73
2021/09/14 14:30:02;;;;;;;7.07;3.42;;;;;;;;;;5094844;28;20089;-73
2021/09/14 14:32:28;;;;;;;14.32;3.75;;;;;;;;;;5095068;28;20444;-73
2021/09/14 14:34:54;;;;;;;9.15;3.53;;;;;;;;;;5094651;28;20067;-73
2021/09/14 14:37:20;;;;;;;6.45;3.20;;;;;;;;;;5094735;28;20122;-74
2021/09/14 14:39:46;;;;;;;15.70;3.92;;;;;;;;;;5094487;28;20044;-73
2021/09/14 14:42:12;;;;;;;7.43;3.63;;;;;;;;;;5094272;28;20119;-73
2021/09/14 14:44:38;;;;;;;8.02;3.30;;;;;;;;;;5094482;28;20032;-72
2021/09/14 14:47:04;;;;;;;7.50;3.58;;;;;;;;;;5094708;28;20035;-72
2021/09/14 14:49:30;;;;;;;9.50;3.38;;;;;;;;;;5094440;28;20066;-73
2021/09/14 14:51:56;;;;;;;8.75;3.45;;;;;;;;;;5094374;28;20032;-73
2021/09/14 14:54:22;;;;;;;6.93;3.00;;;;;;;;;;5094593;28;20028;-73
2021/09/14 14:56:48;;;;;;;7.68;3.47;;;;;;;;;;5095114;28;20032;-73
2021/09/14 14:59:14;;;;;;;12.18;3.55;;;;;;;;;;5094422;28;20400;-74
2021/09/14 15:01:40;;;;;;;11.30;3.55;;;;;;;;;;5093629;28;20037;-73
2021/09/14 15:04:06;;;;;;;11.75;3.58;;;;;;;;;;5094189;28;20040;-73
2021/09/14 15:06:32;;;;;;;5.47;3.17;;;;;;;;;;5094416;28;20465;-73
2021/09/14 15:08:58;;;;;;;6.45;2.92;;;;;;;;;;5094084;28;20097;-73
2021/09/14 15:11:24;;;;;;;6.30;3.22;;;;;;;;;;5093923;28;20024;-73
2021/09/14 15:13:50;;;;;;;6.13;3.65;;;;;;;;;;5094112;28;20481;-73
2021/09/14 15:16:16;;;;;;;12.13;2.75;;;;;;;;;;5093898;28;20085;-73
2021/09/14 15:18:43;;;;;;;5.93;3.03;;;;;;;;;;5094101;28;20032;-72
2021/09/14 15:21:09;;;;;;;7.32;2.97;;;;;;;;;;5093892;28;20061;-74
2021/09/14 15:23:36;;;;;;;10.63;3.80;;;;;;;;;;5093708;28;20063;-73